Time;durP1;ratioP1;P1;durP2;ratioP2;P2;SDS_P1;SDS_P2;PMS_P1;PMS_P2;Temp;Humidity;BMP_temperature;BMP_pressure;BME280_temperature;BME280_humidity;BME280_pressure;Samples;Min_cycle;Max_cycle;Signal;HPM_P1;HPM_P2
2022/10/17 00:01:45;;;;;;;7.90;6.20;;;10.20;76.30;;;;;;5105918;28;20467;-57
2022/10/17 00:04:11;;;;;;;9.38;6.40;;;10.20;76.20;;;;;;5102019;28;20025;-58
2022/10/17 00:06:36;;;;;;;8.10;6.07;;;10.20;76.10;;;;;;5105943;28;20084;-58
2022/10/17 00:09:02;;;;;;;8.45;6.18;;;10.20;76.00;;;;;;5098153;28;20028;-57
2022/10/17 00:11:28;;;;;;;8.93;6.05;;;10.10;75.90;;;;;;5091273;28;20028;-57
2022/10/17 00:13:55;;;;;;;8.05;5.85;;;10.10;75.80;;;;;;5089399;28;20086;-58
2022/10/17 00:16:33;;;;;;;8.90;6.18;;;10.10;75.80;;;;;;5104496;28;20368;-57
2022/10/17 00:18:59;;;;;;;8.00;6.03;;;10.00;75.60;;;;;;5094180;28;20020;-57
2022/10/17 00:21:25;;;;;;;8.98;5.72;;;10.00;75.40;;;;;;5097481;28;20443;-57
2022/10/17 00:23:52;;;;;;;9.07;6.70;;;9.90;75.30;;;;;;5102474;28;20016;-57
2022/10/17 00:26:18;;;;;;;11.30;6.38;;;9.90;75.30;;;;;;5098430;28;20039;-57
2022/10/17 00:28:48;;;;;;;8.55;5.88;;;9.80;75.30;;;;;;5100289;28;20074;-57
2022/10/17 00:31:14;;;;;;;9.88;6.70;;;9.80;75.30;;;;;;5097136;28;20097;-57
2022/10/17 00:33:41;;;;;;;11.40;7.00;;;9.70;75.20;;;;;;5090616;28;20020;-58
2022/10/17 00:36:16;;;;;;;10.40;6.93;;;9.70;75.20;;;;;;5101718;28;20045;-59
2022/10/17 00:38:44;;;;;;;10.07;6.93;;;9.70;75.10;;;;;;5086408;28;20463;-58
2022/10/17 00:41:12;;;;;;;8.60;6.20;;;9.60;75.10;;;;;;5079758;28;20020;-57
2022/10/17 00:44:00;;;;;;;8.80;6.80;;;9.60;75.20;;;;;;5106511;28;20019;-58
2022/10/17 00:46:32;;;;;;;9.52;6.88;;;9.60;75.20;;;;;;5100233;28;20028;-57
2022/10/17 00:49:03;;;;;;;8.90;6.30;;;9.60;75.30;;;;;;5097185;28;20032;-57
2022/10/17 00:51:47;;;;;;;10.63;7.25;;;9.60;75.30;;;;;;5090394;28;20020;-57
2022/10/17 00:54:15;;;;;;;11.35;7.32;;;9.50;75.20;;;;;;5087728;28;20044;-57
2022/10/17 00:56:41;;;;;;;9.90;7.03;;;9.50;75.00;;;;;;5074184;28;20033;-57
2022/10/17 00:59:09;;;;;;;10.48;7.00;;;9.50;75.00;;;;;;5086326;28;20045;-58
2022/10/17 01:01:35;;;;;;;10.80;6.80;;;9.50;75.10;;;;;;5093810;28;20535;-57
2022/10/17 01:04:01;;;;;;;9.57;6.95;;;9.40;74.90;;;;;;5088589;28;20028;-58
2022/10/17 01:06:26;;;;;;;9.38;6.60;;;9.40;74.90;;;;;;5084935;28;20371;-57
2022/10/17 01:08:52;;;;;;;9.25;7.05;;;9.40;74.80;;;;;;5104092;28;20035;-58
2022/10/17 01:11:23;;;;;;;10.25;6.70;;;9.40;74.80;;;;;;5071293;28;20083;-57
2022/10/17 01:14:05;;;;;;;8.60;5.95;;;9.30;74.80;;;;;;5082212;28;20032;-57
2022/10/17 01:16:51;;;;;;;9.55;6.90;;;9.30;74.80;;;;;;5092584;28;20487;-58
2022/10/17 01:19:38;;;;;;;9.48;7.03;;;9.30;74.80;;;;;;5079709;28;20399;-57
2022/10/17 01:22:34;;;;;;;8.23;6.40;;;9.30;74.60;;;;;;5076358;28;20518;-58
2022/10/17 01:25:24;;;;;;;11.30;7.20;;;9.20;74.50;;;;;;5092388;28;20035;-57
2022/10/17 01:28:31;;;;;;;10.65;7.00;;;9.20;74.60;;;;;;5072226;28;20024;-57
2022/10/17 01:31:20;;;;;;;9.60;6.90;;;9.20;75.00;;;;;;5071676;28;20492;-59
2022/10/17 01:34:11;;;;;;;9.05;6.32;;;9.10;74.90;;;;;;5072841;28;20376;-57
2022/10/17 01:36:55;;;;;;;9.73;6.37;;;9.10;75.00;;;;;;5073370;28;20033;-58
2022/10/17 01:39:29;;;;;;;9.57;6.07;;;9.10;75.30;;;;;;5069965;28;20143;-57
2022/10/17 01:42:05;;;;;;;7.60;6.20;;;9.10;75.50;;;;;;5074194;28;20031;-57
2022/10/17 01:45:20;;;;;;;7.60;6.05;;;9.20;75.80;;;;;;5074886;28;20120;-57
2022/10/17 01:47:49;;;;;;;9.23;6.15;;;9.20;75.90;;;;;;5084104;28;20450;-57
2022/10/17 01:50:20;;;;;;;8.02;6.18;;;9.20;76.10;;;;;;5079830;28;20023;-57
2022/10/17 01:52:52;;;;;;;7.78;6.03;;;9.30;76.20;;;;;;5081198;28;20095;-58
2022/10/17 01:55:24;;;;;;;7.82;5.93;;;9.30;76.40;;;;;;5071101;28;20112;-57
2022/10/17 01:57:55;;;;;;;;;;;9.40;76.20;;;;;;5074419;28;20075;-57
2022/10/17 02:00:25;;;;;;;9.57;6.68;;;9.30;75.90;;;;;;5074791;28;19908;-57
2022/10/17 02:02:59;;;;;;;7.15;5.65;;;9.30;75.80;;;;;;5072644;28;20024;-57
2022/10/17 02:05:30;;;;;;;8.18;6.50;;;9.30;75.90;;;;;;5072613;28;20028;-58
2022/10/17 02:07:55;;;;;;;9.13;6.70;;;9.30;76.20;;;;;;5080696;28;20089;-57
2022/10/17 02:10:33;;;;;;;8.98;6.90;;;9.30;76.40;;;;;;5086154;28;20020;-57
2022/10/17 02:13:13;;;;;;;9.35;6.88;;;9.30;76.60;;;;;;5079884;28;20029;-58
2022/10/17 02:15:54;;;;;;;7.63;6.50;;;9.30;77.10;;;;;;5062878;28;20107;-58
2022/10/17 02:18:40;;;;;;;9.25;6.55;;;9.30;77.20;;;;;;5082834;28;20081;-57
2022/10/17 02:21:17;;;;;;;8.07;6.70;;;9.30;77.30;;;;;;5084281;28;20122;-58
2022/10/17 02:23:54;;;;;;;7.95;6.15;;;9.30;77.50;;;;;;5092060;28;20032;-57
2022/10/17 02:26:40;;;;;;;9.88;7.10;;;9.30;77.80;;;;;;5091143;28;20470;-57
2022/10/17 02:29:14;;;;;;;9.15;6.22;;;9.30;77.80;;;;;;5080690;28;20032;-58
2022/10/17 02:31:55;;;;;;;8.80;6.43;;;9.30;78.00;;;;;;5081474;28;20024;-58
2022/10/17 02:34:35;;;;;;;7.55;5.70;;;9.30;78.20;;;;;;5082075;28;20024;-58
2022/10/17 02:37:03;;;;;;;7.18;6.07;;;9.40;78.30;;;;;;5091558;28;20024;-57
2022/10/17 02:39:31;;;;;;;8.15;5.95;;;9.40;78.30;;;;;;5083518;28;20027;-57
2022/10/17 02:42:00;;;;;;;8.70;6.60;;;9.40;78.50;;;;;;5076081;28;20476;-57
2022/10/17 02:44:27;;;;;;;8.05;6.40;;;9.50;78.50;;;;;;5088726;28;20016;-57
2022/10/17 02:47:02;;;;;;;7.95;5.95;;;9.50;78.60;;;;;;5076193;28;20037;-57
2022/10/17 02:49:35;;;;;;;7.97;5.85;;;9.60;78.60;;;;;;5072298;28;20541;-57
2022/10/17 02:52:37;;;;;;;7.95;6.13;;;9.60;78.40;;;;;;5071673;28;20024;-57
2022/10/17 02:55:28;;;;;;;8.07;5.43;;;9.60;78.20;;;;;;5068869;28;20036;-57
2022/10/17 02:57:59;;;;;;;7.28;5.85;;;9.60;78.20;;;;;;5066243;28;20040;-58
2022/10/17 03:00:26;;;;;;;8.45;5.85;;;9.60;78.20;;;;;;5082353;28;20025;-57
2022/10/17 03:02:53;;;;;;;8.65;6.03;;;9.60;78.30;;;;;;5071390;28;20024;-58
2022/10/17 03:05:24;;;;;;;7.47;5.57;;;9.70;78.30;;;;;;5071816;28;20028;-57
2022/10/17 03:07:49;;;;;;;8.48;5.68;;;9.70;79.00;;;;;;5071483;28;20031;-57
2022/10/17 03:10:15;;;;;;;6.43;4.93;;;9.70;78.30;;;;;;5071844;28;20016;-57
2022/10/17 03:12:41;;;;;;;6.57;5.10;;;9.70;78.30;;;;;;5071770;28;20032;-57
2022/10/17 03:15:07;;;;;;;6.57;5.10;;;9.80;78.30;;;;;;5070770;28;20109;-57
2022/10/17 03:17:33;;;;;;;7.95;5.45;;;9.80;78.30;;;;;;5071057;28;20439;-57
2022/10/17 03:19:59;;;;;;;7.40;5.60;;;9.80;78.30;;;;;;5071785;28;20021;-57
2022/10/17 03:22:24;;;;;;;8.75;5.40;;;9.80;78.30;;;;;;5071967;28;20024;-57
2022/10/17 03:24:50;;;;;;;7.65;5.70;;;9.80;78.30;;;;;;5071772;28;20467;-58
2022/10/17 03:27:15;;;;;;;7.95;5.68;;;9.80;78.30;;;;;;5072241;28;20028;-58
2022/10/17 03:29:41;;;;;;;6.63;5.72;;;9.80;78.30;;;;;;5071340;28;20039;-57
2022/10/17 03:32:06;;;;;;;7.30;5.88;;;9.80;78.20;;;;;;5062739;28;20021;-57
2022/10/17 03:34:32;;;;;;;10.13;6.22;;;9.80;78.20;;;;;;5071968;28;20531;-57
2022/10/17 03:36:58;;;;;;;8.25;6.15;;;9.80;77.80;;;;;;5070992;28;20024;-58
2022/10/17 03:39:23;;;;;;;8.25;6.35;;;9.80;77.70;;;;;;5066767;28;20032;-57
2022/10/17 03:41:49;;;;;;;8.75;6.45;;;9.70;77.80;;;;;;5075020;28;20023;-57
2022/10/17 03:44:15;;;;;;;10.90;7.70;;;9.70;77.80;;;;;;5081491;28;20016;-57
2022/10/17 03:46:40;;;;;;;10.02;7.47;;;9.70;78.40;;;;;;5090700;28;20024;-59
2022/10/17 03:49:08;;;;;;;11.82;8.20;;;9.60;77.70;;;;;;5085860;28;20150;-57
2022/10/17 03:51:34;;;;;;;11.73;8.35;;;9.60;77.70;;;;;;5078411;28;20349;-57
2022/10/17 03:54:00;;;;;;;13.05;9.50;;;9.50;77.50;;;;;;5075154;28;20040;-58
2022/10/17 03:56:26;;;;;;;11.98;9.57;;;9.50;77.60;;;;;;5090559;28;20157;-57
2022/10/17 03:58:53;;;;;;;13.65;9.55;;;9.50;77.50;;;;;;5085445;28;20057;-58
2022/10/17 04:01:20;;;;;;;13.07;9.07;;;9.40;77.30;;;;;;5090285;28;20020;-57
2022/10/17 04:03:53;;;;;;;12.93;9.35;;;9.40;77.30;;;;;;5086797;28;20225;-57
2022/10/17 04:06:20;;;;;;;12.82;9.05;;;9.30;77.10;;;;;;5082378;28;20020;-56
2022/10/17 04:08:46;;;;;;;14.27;10.85;;;9.30;77.10;;;;;;5089518;28;20041;-56
2022/10/17 04:11:17;;;;;;;14.00;10.43;;;9.20;76.90;;;;;;5080396;28;20146;-57
2022/10/17 04:13:43;;;;;;;13.57;10.02;;;9.20;76.70;;;;;;5084549;28;20120;-57
2022/10/17 04:16:14;;;;;;;14.07;10.68;;;9.10;76.60;;;;;;5088165;28;20032;-57
2022/10/17 04:18:41;;;;;;;12.38;9.57;;;9.00;76.50;;;;;;5083839;28;20024;-57
2022/10/17 04:21:07;;;;;;;11.10;8.32;;;9.00;76.80;;;;;;5080431;28;20024;-59
2022/10/17 04:23:34;;;;;;;12.57;9.73;;;8.90;76.60;;;;;;5089680;28;20032;-57
2022/10/17 04:26:00;;;;;;;14.90;11.23;;;8.90;76.70;;;;;;5090541;28;20024;-57
2022/10/17 04:28:26;;;;;;;13.63;10.43;;;8.80;76.60;;;;;;5085581;28;20032;-57
2022/10/17 04:31:04;;;;;;;12.02;9.25;;;8.80;76.60;;;;;;5079216;28;20044;-57
2022/10/17 04:33:30;;;;;;;13.30;9.80;;;8.70;76.70;;;;;;5070124;28;20078;-58
2022/10/17 04:36:11;;;;;;;16.13;10.80;;;8.70;76.80;;;;;;5070580;28;20056;-58
2022/10/17 04:38:37;;;;;;;14.10;10.57;;;8.70;76.80;;;;;;5069962;28;20450;-57
2022/10/17 04:41:05;;;;;;;15.07;10.00;;;8.60;76.80;;;;;;5067717;28;20506;-57
2022/10/17 04:43:34;;;;;;;14.88;11.68;;;8.60;76.80;;;;;;5079699;28;20023;-57
2022/10/17 04:46:01;;;;;;;15.57;12.07;;;8.50;76.80;;;;;;5083223;28;20023;-56
2022/10/17 04:48:28;;;;;;;14.48;10.27;;;8.50;76.70;;;;;;5084117;28;20379;-57
2022/10/17 04:50:59;;;;;;;16.38;11.43;;;8.50;76.90;;;;;;5078792;28;20445;-57
2022/10/17 04:53:26;;;;;;;14.30;10.98;;;8.50;76.90;;;;;;5079183;28;20032;-57
2022/10/17 04:55:52;;;;;;;16.17;11.52;;;8.40;76.60;;;;;;5078167;28;20052;-57
2022/10/17 04:58:18;;;;;;;14.63;11.30;;;8.40;76.70;;;;;;5088745;28;20048;-57
2022/10/17 05:00:44;;;;;;;14.23;11.02;;;8.40;76.70;;;;;;5083197;28;20060;-57
2022/10/17 05:03:10;;;;;;;14.85;11.30;;;8.40;76.80;;;;;;5084616;28;20059;-57
2022/10/17 05:05:39;;;;;;;15.57;11.40;;;8.40;76.80;;;;;;5092282;28;20489;-57
2022/10/17 05:08:06;;;;;;;16.38;12.20;;;8.40;76.90;;;;;;5093341;28;20424;-57
2022/10/17 05:10:43;;;;;;;14.68;12.00;;;8.40;76.90;;;;;;5076980;28;20035;-58
2022/10/17 05:13:09;;;;;;;16.50;11.77;;;8.50;77.50;;;;;;5067775;28;20842;-58
2022/10/17 05:15:36;;;;;;;16.45;12.32;;;8.50;76.80;;;;;;5068120;28;20507;-57
2022/10/17 05:18:02;;;;;;;16.27;12.50;;;8.60;76.70;;;;;;5068535;28;20024;-59
2022/10/17 05:20:28;;;;;;;16.75;12.73;;;8.60;76.60;;;;;;5070083;28;20036;-57
2022/10/17 05:22:54;;;;;;;16.88;12.38;;;8.60;76.50;;;;;;5071127;28;20024;-58
2022/10/17 05:25:20;;;;;;;18.27;12.95;;;8.60;76.30;;;;;;5068391;28;20040;-57
2022/10/17 05:27:46;;;;;;;17.88;13.77;;;8.60;76.60;;;;;;5062335;28;20029;-57
2022/10/17 05:30:11;;;;;;;17.80;12.88;;;8.70;76.30;;;;;;5071635;28;20751;-57
2022/10/17 05:32:37;;;;;;;18.38;13.13;;;8.60;76.40;;;;;;5070710;28;20046;-57
2022/10/17 05:35:03;;;;;;;18.20;13.50;;;8.70;76.30;;;;;;5072592;28;20025;-57
2022/10/17 05:37:30;;;;;;;16.38;12.23;;;8.70;76.30;;;;;;5065884;28;20064;-58
2022/10/17 05:39:56;;;;;;;15.95;11.68;;;8.60;76.30;;;;;;5067808;28;20356;-58
2022/10/17 05:42:22;;;;;;;17.17;12.18;;;8.70;76.30;;;;;;5068814;28;20054;-57
2022/10/17 05:44:48;;;;;;;14.50;10.95;;;8.70;76.40;;;;;;5082671;28;20016;-58
2022/10/17 05:47:13;;;;;;;14.27;10.80;;;8.70;76.50;;;;;;5069303;28;20031;-57
2022/10/17 05:49:39;;;;;;;13.07;9.23;;;8.80;76.60;;;;;;5069438;28;20044;-57
2022/10/17 05:52:05;;;;;;;14.60;10.90;;;8.80;76.60;;;;;;5069371;28;20478;-57
2022/10/17 05:54:31;;;;;;;14.55;10.65;;;8.90;76.60;;;;;;5073432;28;20040;-59
2022/10/17 05:56:56;;;;;;;17.08;11.43;;;9.00;76.70;;;;;;5066871;28;20056;-59
2022/10/17 05:59:24;;;;;;;14.18;10.90;;;9.10;76.60;;;;;;5070884;28;20041;-57
2022/10/17 06:01:50;;;;;;;15.15;10.50;;;9.20;76.70;;;;;;5067204;28;20028;-59
2022/10/17 06:04:16;;;;;;;16.05;11.30;;;9.30;76.50;;;;;;5069263;28;20037;-57
2022/10/17 06:06:41;;;;;;;12.70;9.73;;;9.30;76.30;;;;;;5072320;28;20024;-58
2022/10/17 06:09:07;;;;;;;12.73;9.15;;;9.40;76.10;;;;;;5065953;28;20115;-57
2022/10/17 06:11:34;;;;;;;14.55;10.20;;;9.50;76.10;;;;;;5065113;28;20071;-58
2022/10/17 06:14:00;;;;;;;15.25;9.95;;;9.70;76.00;;;;;;5060156;28;20092;-59
2022/10/17 06:16:26;;;;;;;14.48;9.70;;;9.80;76.50;;;;;;5065061;28;20036;-57
2022/10/17 06:18:52;;;;;;;13.55;9.55;;;9.80;75.50;;;;;;5068709;28;20484;-58
2022/10/17 06:21:24;;;;;;;13.60;10.35;;;9.90;75.40;;;;;;5067423;28;20662;-58
2022/10/17 06:23:50;;;;;;;11.90;8.80;;;10.00;75.20;;;;;;5059094;28;20033;-58
2022/10/17 06:26:15;;;;;;;13.48;10.32;;;10.10;75.10;;;;;;5053715;28;20021;-60
2022/10/17 06:28:42;;;;;;;13.95;9.25;;;10.20;74.80;;;;;;5060130;28;20106;-58
2022/10/17 06:31:10;;;;;;;13.38;10.23;;;10.20;74.70;;;;;;5058462;28;20032;-59
2022/10/17 06:33:36;;;;;;;12.73;9.60;;;10.30;74.70;;;;;;5064191;28;20020;-58
2022/10/17 06:36:03;;;;;;;12.75;10.13;;;10.40;74.80;;;;;;5057630;28;20032;-60
2022/10/17 06:38:29;;;;;;;12.07;9.48;;;10.40;74.60;;;;;;5066520;28;20029;-57
2022/10/17 06:41:03;;;;;;;13.93;9.50;;;10.60;74.50;;;;;;5061881;28;20495;-58
2022/10/17 06:43:29;;;;;;;13.98;10.05;;;10.60;74.20;;;;;;5057540;28;20052;-59
2022/10/17 06:45:54;;;;;;;12.23;9.80;;;10.70;74.10;;;;;;5054957;28;20146;-57
2022/10/17 06:48:20;;;;;;;12.20;8.77;;;10.80;73.90;;;;;;5070495;28;20086;-58
2022/10/17 06:50:46;;;;;;;11.23;8.68;;;10.80;73.60;;;;;;5060332;28;20086;-57
2022/10/17 06:53:12;;;;;;;11.25;8.50;;;10.90;73.50;;;;;;5052737;28;20103;-58
2022/10/17 06:55:37;;;;;;;12.93;9.23;;;11.00;73.50;;;;;;5057623;28;20063;-60
2022/10/17 06:58:03;;;;;;;11.23;7.82;;;11.00;73.30;;;;;;5061781;28;20147;-60
2022/10/17 07:00:28;;;;;;;12.55;8.82;;;11.00;73.00;;;;;;5043193;28;20036;-58
2022/10/17 07:02:54;;;;;;;12.35;9.10;;;11.00;73.00;;;;;;5052053;28;20081;-60
2022/10/17 07:05:20;;;;;;;13.50;9.63;;;11.10;73.00;;;;;;5044612;28;20138;-61
2022/10/17 07:07:46;;;;;;;12.05;9.48;;;11.10;72.90;;;;;;5046147;28;20117;-59
2022/10/17 07:10:11;;;;;;;13.30;9.93;;;11.20;72.80;;;;;;5046868;28;20040;-60
2022/10/17 07:12:37;;;;;;;11.45;8.98;;;11.20;72.80;;;;;;5053198;28;20067;-59
2022/10/17 07:15:04;;;;;;;14.27;9.77;;;11.30;72.80;;;;;;5044122;28;20458;-59
2022/10/17 07:17:30;;;;;;;13.40;9.70;;;11.30;72.60;;;;;;5041166;28;20077;-58
2022/10/17 07:19:55;;;;;;;13.52;9.15;;;11.40;72.50;;;;;;5053536;28;20479;-58
2022/10/17 07:22:21;;;;;;;13.57;10.20;;;11.40;72.50;;;;;;5049770;28;20048;-59
2022/10/17 07:24:47;;;;;;;12.93;9.88;;;11.50;72.10;;;;;;5043956;28;20108;-59
2022/10/17 07:27:13;;;;;;;12.25;9.23;;;11.50;71.90;;;;;;5047427;28;20040;-59
2022/10/17 07:29:39;;;;;;;11.88;9.05;;;11.50;71.70;;;;;;5039596;28;20039;-58
2022/10/17 07:32:07;;;;;;;11.02;7.93;;;11.50;71.90;;;;;;5040709;28;22809;-58
2022/10/17 07:34:34;;;;;;;11.80;8.75;;;11.60;71.70;;;;;;5046100;28;20032;-60
2022/10/17 07:36:59;;;;;;;10.35;9.15;;;11.70;71.70;;;;;;5047521;28;20036;-61
2022/10/17 07:39:25;;;;;;;11.15;8.98;;;11.70;71.70;;;;;;5051392;28;20036;-58
2022/10/17 07:41:50;;;;;;;12.88;9.07;;;11.80;71.70;;;;;;5054358;28;20392;-57
2022/10/17 07:44:16;;;;;;;12.65;8.77;;;11.80;71.50;;;;;;5042159;28;20028;-56
2022/10/17 07:46:42;;;;;;;10.70;8.20;;;11.80;71.40;;;;;;5048906;28;20028;-58
2022/10/17 07:49:08;;;;;;;10.95;7.90;;;11.90;72.00;;;;;;5045973;28;20036;-60
2022/10/17 07:51:33;;;;;;;13.57;9.13;;;11.90;71.30;;;;;;5043394;28;20032;-58
2022/10/17 07:53:59;;;;;;;12.02;8.40;;;12.00;71.30;;;;;;5043540;28;20056;-58
2022/10/17 07:56:25;;;;;;;12.63;9.05;;;12.00;71.20;;;;;;5045233;28;20693;-59
2022/10/17 07:58:51;;;;;;;12.80;9.32;;;12.10;71.10;;;;;;5043430;28;20036;-60
2022/10/17 08:01:18;;;;;;;11.32;8.65;;;12.10;70.90;;;;;;5046338;28;20056;-59
2022/10/17 08:03:45;;;;;;;15.32;10.68;;;12.10;70.90;;;;;;5056696;28;20083;-58
2022/10/17 08:06:11;;;;;;;12.50;9.50;;;12.20;70.80;;;;;;5053070;28;20552;-60
2022/10/17 08:08:37;;;;;;;16.30;11.48;;;12.20;70.70;;;;;;5050921;28;20028;-58
2022/10/17 08:11:05;;;;;;;15.77;10.00;;;12.20;70.60;;;;;;5045179;28;21040;-60
2022/10/17 08:13:31;;;;;;;13.70;9.25;;;12.30;70.70;;;;;;5052840;28;20020;-58
2022/10/17 08:16:06;;;;;;;14.50;10.23;;;12.30;70.70;;;;;;5043715;28;20033;-59
2022/10/17 08:18:32;;;;;;;14.93;10.63;;;12.30;70.70;;;;;;5051195;28;20488;-58
2022/10/17 08:20:59;;;;;;;15.05;10.05;;;12.40;70.50;;;;;;5045215;28;20028;-59
2022/10/17 08:23:26;;;;;;;14.25;10.30;;;12.40;70.40;;;;;;5048843;28;20016;-60
2022/10/17 08:25:51;;;;;;;12.07;8.57;;;12.40;70.30;;;;;;5046697;28;20620;-58
2022/10/17 08:28:17;;;;;;;12.45;8.05;;;12.40;70.30;;;;;;5043588;28;20040;-59
2022/10/17 08:30:43;;;;;;;13.10;8.90;;;12.50;70.40;;;;;;5043868;28;20040;-57
2022/10/17 08:33:08;;;;;;;11.45;8.30;;;12.50;70.40;;;;;;5048622;28;20395;-60
2022/10/17 08:35:34;;;;;;;13.70;8.93;;;12.50;70.50;;;;;;5053935;28;20033;-59
2022/10/17 08:38:00;;;;;;;11.85;8.75;;;12.50;70.50;;;;;;5045271;28;20426;-58
2022/10/17 08:40:29;;;;;;;13.13;8.80;;;12.50;70.50;;;;;;5053786;28;20024;-59
2022/10/17 08:43:04;;;;;;;12.52;8.80;;;12.60;70.60;;;;;;5054181;28;20503;-59
2022/10/17 08:45:47;;;;;;;14.95;9.40;;;12.60;70.50;;;;;;5054116;28;20033;-59
2022/10/17 08:48:16;;;;;;;12.38;9.93;;;12.60;70.50;;;;;;5046457;28;20115;-57
2022/10/17 08:50:48;;;;;;;14.55;10.88;;;12.60;70.50;;;;;;5049529;28;20032;-60
2022/10/17 08:53:18;;;;;;;15.05;11.45;;;12.60;70.50;;;;;;5044518;28;20020;-59
2022/10/17 08:55:49;;;;;;;14.32;11.55;;;12.60;70.70;;;;;;5044931;28;20037;-59
2022/10/17 08:58:21;;;;;;;15.23;11.27;;;12.60;70.80;;;;;;5048739;28;20253;-58
2022/10/17 09:01:02;;;;;;;18.80;11.35;;;12.70;70.80;;;;;;5044561;28;20036;-57
2022/10/17 09:04:10;;;;;;;15.35;11.95;;;12.70;70.60;;;;;;5050049;28;20032;-58
2022/10/17 09:06:46;;;;;;;20.85;14.43;;;12.70;70.60;;;;;;5052186;28;20033;-57
2022/10/17 09:09:49;;;;;;;17.20;13.07;;;12.70;70.50;;;;;;5044900;28;20024;-60
2022/10/17 09:12:41;;;;;;;19.23;11.32;;;12.70;70.40;;;;;;5052878;28;20417;-58
2022/10/17 09:15:28;;;;;;;15.23;10.52;;;12.80;70.40;;;;;;5053041;28;20383;-59
2022/10/17 09:17:59;;;;;;;14.18;10.32;;;12.80;70.60;;;;;;5045856;28;20064;-57
2022/10/17 09:20:32;;;;;;;10.07;8.40;;;12.80;70.70;;;;;;5048185;28;20524;-59
2022/10/17 09:23:10;;;;;;;11.93;8.63;;;12.80;70.60;;;;;;5049769;28;20036;-58
2022/10/17 09:26:09;;;;;;;12.77;8.35;;;12.90;70.50;;;;;;5043675;28;20028;-58
2022/10/17 09:28:37;;;;;;;10.85;7.60;;;12.90;70.40;;;;;;5045083;28;20040;-60
2022/10/17 09:31:06;;;;;;;10.50;7.43;;;12.90;70.40;;;;;;5042526;28;20078;-59
2022/10/17 09:33:43;;;;;;;9.43;7.18;;;12.90;70.50;;;;;;5048579;28;20199;-58
2022/10/17 09:36:20;;;;;;;10.63;7.70;;;12.90;70.50;;;;;;5052040;28;20021;-58
2022/10/17 09:39:01;;;;;;;8.88;6.50;;;12.90;70.60;;;;;;5058657;28;20071;-57
2022/10/17 09:41:43;;;;;;;8.80;5.70;;;13.00;70.70;;;;;;5053057;28;20075;-58
2022/10/17 09:44:22;;;;;;;9.35;6.70;;;13.00;70.70;;;;;;5047480;28;20060;-58
2022/10/17 09:47:28;;;;;;;8.85;6.53;;;13.00;70.50;;;;;;5045955;28;20153;-56
2022/10/17 09:49:54;;;;;;;9.63;6.60;;;13.00;70.40;;;;;;5051739;28;20124;-58
2022/10/17 09:52:56;;;;;;;10.45;7.03;;;13.00;70.40;;;;;;5046549;28;20025;-60
2022/10/17 09:55:33;;;;;;;8.32;6.45;;;13.10;70.30;;;;;;5023741;28;20044;-59
2022/10/17 09:58:04;;;;;;;10.18;6.68;;;13.00;70.30;;;;;;5047741;28;20048;-59
2022/10/17 10:00:36;;;;;;;8.55;5.90;;;13.10;70.30;;;;;;5051459;28;20035;-57
2022/10/17 10:03:14;;;;;;;7.60;5.97;;;13.10;70.20;;;;;;5051254;28;20560;-57
2022/10/17 10:05:41;;;;;;;8.70;6.55;;;13.10;70.20;;;;;;5058315;28;20024;-57
2022/10/17 10:08:16;;;;;;;8.55;5.70;;;13.10;70.20;;;;;;5053292;28;20095;-57
2022/10/17 10:10:43;;;;;;;9.25;6.07;;;13.10;70.00;;;;;;5054365;28;20601;-57
2022/10/17 10:13:16;;;;;;;7.82;6.63;;;13.10;70.00;;;;;;5054263;28;20032;-57
2022/10/17 10:15:47;;;;;;;8.00;5.63;;;13.10;69.90;;;;;;5057030;28;20032;-58
2022/10/17 10:18:32;;;;;;;7.65;5.35;;;13.10;69.90;;;;;;5057500;28;20020;-58
2022/10/17 10:21:27;;;;;;;8.35;5.72;;;13.10;70.00;;;;;;5056911;28;20035;-60
2022/10/17 10:24:08;;;;;;;7.90;5.78;;;13.10;70.10;;;;;;5051507;28;20060;-57
2022/10/17 10:26:43;;;;;;;10.23;5.90;;;13.20;70.30;;;;;;5054508;28;20024;-58
2022/10/17 10:29:29;;;;;;;7.50;5.70;;;13.20;70.20;;;;;;5048408;28;20316;-59
2022/10/17 10:32:11;;;;;;;7.95;5.95;;;13.20;70.30;;;;;;5052129;28;20028;-58
2022/10/17 10:34:47;;;;;;;7.80;5.80;;;13.20;70.30;;;;;;5058947;28;20043;-58
2022/10/17 10:37:20;;;;;;;9.20;5.65;;;13.20;70.30;;;;;;5056092;28;20047;-58
2022/10/17 10:39:51;;;;;;;8.00;5.63;;;13.20;70.40;;;;;;5050202;28;20066;-57
2022/10/17 10:42:36;;;;;;;11.57;5.72;;;13.20;70.40;;;;;;5052485;28;20036;-58
2022/10/17 10:45:24;;;;;;;8.55;5.70;;;13.20;70.50;;;;;;5055946;28;20488;-58
2022/10/17 10:47:51;;;;;;;8.82;5.80;;;13.20;70.50;;;;;;5044680;28;20040;-58
2022/10/17 10:50:38;;;;;;;9.70;6.97;;;13.20;70.50;;;;;;5049903;28;20674;-59
2022/10/17 10:53:16;;;;;;;9.75;5.93;;;13.20;70.50;;;;;;5054703;28;20028;-56
2022/10/17 10:55:49;;;;;;;9.82;6.40;;;13.20;70.50;;;;;;5052066;28;20398;-56
2022/10/17 10:58:35;;;;;;;8.82;7.15;;;13.20;70.60;;;;;;5050011;28;20067;-57
2022/10/17 11:01:06;;;;;;;9.20;5.93;;;13.20;70.50;;;;;;5038870;28;20047;-56
2022/10/17 11:03:44;;;;;;;7.68;5.72;;;13.20;70.50;;;;;;5046513;28;20032;-58
2022/10/17 11:06:22;;;;;;;7.97;5.60;;;13.10;70.60;;;;;;5043414;28;20039;-57
2022/10/17 11:08:59;;;;;;;9.13;6.15;;;13.10;70.80;;;;;;5046009;28;20029;-55
2022/10/17 11:11:39;;;;;;;7.70;5.78;;;13.10;71.00;;;;;;5042593;28;20184;-58
2022/10/17 11:14:20;;;;;;;8.55;5.80;;;13.10;71.10;;;;;;5041796;28;20032;-59
2022/10/17 11:17:19;;;;;;;6.93;5.45;;;13.10;71.30;;;;;;5029891;28;20032;-57
2022/10/17 11:20:18;;;;;;;7.80;5.65;;;13.10;71.40;;;;;;5051834;28;20088;-56
2022/10/17 11:22:51;;;;;;;7.47;6.35;;;13.10;71.40;;;;;;5051947;28;20029;-56
2022/10/17 11:25:37;;;;;;;7.50;5.78;;;13.10;71.40;;;;;;5061269;28;20036;-57
2022/10/17 11:28:13;;;;;;;6.55;5.50;;;13.10;71.40;;;;;;5044157;28;20694;-57
2022/10/17 11:30:51;;;;;;;6.85;5.07;;;13.10;71.50;;;;;;5038952;28;20033;-57
2022/10/17 11:33:23;;;;;;;7.55;5.20;;;13.10;71.60;;;;;;5038986;28;20040;-59
2022/10/17 11:35:53;;;;;;;6.05;5.10;;;13.10;71.80;;;;;;5038764;28;20124;-58
2022/10/17 11:38:40;;;;;;;6.18;4.82;;;13.10;72.10;;;;;;5044734;28;21597;-57
2022/10/17 11:41:21;;;;;;;8.20;5.93;;;13.10;71.80;;;;;;5039857;28;20028;-58
2022/10/17 11:43:55;;;;;;;7.07;5.73;;;13.10;71.90;;;;;;5044426;28;20150;-57
2022/10/17 11:46:23;;;;;;;7.90;5.22;;;13.10;71.90;;;;;;5044021;28;20033;-59
2022/10/17 11:48:52;;;;;;;8.68;6.47;;;13.10;72.00;;;;;;5043491;28;20032;-59
2022/10/17 11:51:18;;;;;;;7.68;5.22;;;13.10;72.20;;;;;;5050806;28;20113;-59
2022/10/17 11:53:55;;;;;;;6.63;5.80;;;13.00;72.30;;;;;;5046841;28;20028;-56
2022/10/17 11:56:44;;;;;;;8.93;5.47;;;13.00;72.20;;;;;;5042587;28;20036;-58
2022/10/17 11:59:15;;;;;;;6.47;4.38;;;13.10;72.40;;;;;;5045995;28;20091;-58
2022/10/17 12:02:06;;;;;;;5.90;4.32;;;13.00;72.20;;;;;;5036499;28;20037;-58
2022/10/17 12:04:55;;;;;;;7.15;5.45;;;13.00;72.40;;;;;;5038548;28;20116;-57
2022/10/17 12:07:52;;;;;;;5.90;4.63;;;13.10;72.60;;;;;;5041387;28;20043;-56
2022/10/17 12:10:53;;;;;;;6.20;4.60;;;13.10;72.60;;;;;;5025506;28;20137;-58
2022/10/17 12:13:27;;;;;;;6.60;4.95;;;13.10;72.70;;;;;;5033888;28;20698;-57
2022/10/17 12:15:55;;;;;;;7.15;4.80;;;13.10;72.60;;;;;;5043392;28;20043;-59
2022/10/17 12:18:26;;;;;;;5.35;4.30;;;13.00;72.70;;;;;;5044686;28;20974;-59
2022/10/17 12:20:59;;;;;;;5.65;4.82;;;13.00;72.70;;;;;;5037020;28;20028;-57
2022/10/17 12:23:30;;;;;;;5.32;4.30;;;13.00;72.60;;;;;;5043826;28;20166;-57
2022/10/17 12:26:00;;;;;;;7.90;4.95;;;13.10;72.70;;;;;;5041819;28;20032;-60
2022/10/17 12:28:47;;;;;;;6.05;4.50;;;13.00;72.60;;;;;;5043632;28;20885;-58
2022/10/17 12:31:16;;;;;;;7.43;4.85;;;13.10;72.50;;;;;;5038620;28;20273;-58
2022/10/17 12:33:53;;;;;;;5.68;4.93;;;13.10;72.50;;;;;;5037965;28;20048;-59
2022/10/17 12:36:21;;;;;;;6.72;5.28;;;13.00;72.60;;;;;;5033966;28;20789;-58
2022/10/17 12:39:00;;;;;;;5.53;4.43;;;13.10;72.70;;;;;;5044156;28;20155;-60
2022/10/17 12:41:38;;;;;;;5.93;4.88;;;13.00;72.60;;;;;;5040682;28;20032;-59
2022/10/17 12:44:12;;;;;;;6.57;4.60;;;13.00;72.60;;;;;;5044160;28;20740;-57
2022/10/17 12:46:50;;;;;;;5.55;4.55;;;13.00;72.80;;;;;;5044540;28;20028;-59
2022/10/17 12:49:41;;;;;;;6.55;4.97;;;13.00;73.00;;;;;;5040690;28;20594;-58
2022/10/17 12:52:29;;;;;;;6.20;4.80;;;13.00;72.90;;;;;;5048760;28;20029;-60
2022/10/17 12:55:00;;;;;;;4.82;4.25;;;13.00;72.80;;;;;;5042912;28;20155;-58
2022/10/17 12:57:54;;;;;;;6.97;5.05;;;13.00;73.00;;;;;;5049071;28;20025;-58
2022/10/17 13:00:39;;;;;;;7.13;4.38;;;13.00;73.00;;;;;;5042857;28;20511;-59
2022/10/17 13:03:12;;;;;;;6.30;4.68;;;13.00;73.00;;;;;;5046303;28;20029;-59
2022/10/17 13:05:40;;;;;;;5.75;4.70;;;13.00;73.10;;;;;;5033120;28;20040;-60
2022/10/17 13:08:14;;;;;;;6.85;4.38;;;13.00;73.20;;;;;;5040092;28;20056;-57
2022/10/17 13:10:40;;;;;;;6.53;5.25;;;13.00;73.00;;;;;;5038339;28;20032;-58
2022/10/17 13:13:19;;;;;;;6.60;5.25;;;13.00;73.20;;;;;;5040531;28;20065;-57